createdAt,value
2018-04-08T00:00:44.298Z,19.97
2018-04-08T00:03:12.650Z,22.97
2018-04-08T00:05:40.983Z,19.80
2018-04-08T00:08:09.333Z,26.00
2018-04-08T00:10:37.666Z,18.47
2018-04-08T00:13:06.020Z,19.70
2018-04-08T00:15:34.349Z,21.73
2018-04-08T00:18:02.714Z,21.87
2018-04-08T00:20:31.080Z,20.37
2018-04-08T00:22:59.410Z,19.20
2018-04-08T00:25:27.739Z,65.60
2018-04-08T00:27:56.099Z,122.93
2018-04-08T00:30:24.430Z,84.40
2018-04-08T00:32:52.781Z,33.40
2018-04-08T00:35:21.233Z,55.63
2018-04-08T00:37:49.586Z,57.13
2018-04-08T00:40:17.913Z,56.27
2018-04-08T00:42:46.267Z,37.40
2018-04-08T00:45:14.602Z,25.10
2018-04-08T00:47:42.961Z,28.58
2018-04-08T00:50:11.289Z,25.50
2018-04-08T00:52:39.663Z,23.07
2018-04-08T00:55:07.986Z,24.80
2018-04-08T00:57:36.062Z,18.12
2018-04-08T01:00:04.105Z,18.47
2018-04-08T01:02:32.180Z,23.57
2018-04-08T01:05:00.225Z,19.50
2018-04-08T01:07:28.298Z,19.43
2018-04-08T01:09:56.333Z,26.80
2018-04-08T01:12:24.397Z,22.47
2018-04-08T01:14:52.473Z,21.87
2018-04-08T01:17:20.537Z,26.10
2018-04-08T01:19:48.883Z,18.33
2018-04-08T01:22:17.206Z,21.50
2018-04-08T01:24:45.553Z,23.63
2018-04-08T01:27:13.886Z,21.50
2018-04-08T01:29:42.242Z,22.70
2018-04-08T01:32:10.582Z,21.08
2018-04-08T01:34:38.946Z,24.20
2018-04-08T01:37:07.286Z,24.50
2018-04-08T01:39:35.638Z,28.17
2018-04-08T01:42:03.966Z,32.53
2018-04-08T01:44:32.318Z,27.57
2018-04-08T01:47:00.647Z,22.50
2018-04-08T01:49:28.997Z,20.90
2018-04-08T01:51:57.345Z,23.35
2018-04-08T01:54:25.706Z,24.87
2018-04-08T01:56:54.034Z,34.27
2018-04-08T01:59:22.385Z,28.10
2018-04-08T02:01:50.725Z,22.75
2018-04-08T02:04:19.073Z,34.60
2018-04-08T02:06:47.406Z,22.53
2018-04-08T02:09:15.757Z,23.00
2018-04-08T02:11:44.090Z,23.80
2018-04-08T02:14:12.447Z,22.48
2018-04-08T02:16:40.777Z,27.20
2018-04-08T02:19:09.137Z,29.33
2018-04-08T02:21:37.474Z,33.97
2018-04-08T02:24:05.830Z,24.45
2018-04-08T02:26:34.165Z,22.83
2018-04-08T02:29:02.526Z,25.52
2018-04-08T02:31:30.855Z,33.20
2018-04-08T02:33:59.225Z,30.77
2018-04-08T02:36:27.550Z,37.00
2018-04-08T02:38:55.910Z,29.95
2018-04-08T02:41:24.250Z,29.60
2018-04-08T02:43:52.610Z,24.37
2018-04-08T02:46:20.951Z,26.40
2018-04-08T02:48:49.315Z,23.67
2018-04-08T02:51:17.654Z,27.02
2018-04-08T02:53:46.021Z,18.83
2018-04-08T02:56:14.350Z,20.55
2018-04-08T02:58:42.717Z,23.55
2018-04-08T03:01:11.056Z,17.80
2018-04-08T03:03:39.410Z,21.62
2018-04-08T03:06:07.752Z,21.27
2018-04-08T03:08:36.122Z,20.10
2018-04-08T03:11:04.470Z,19.15
2018-04-08T03:13:32.827Z,19.70
2018-04-08T03:16:01.194Z,19.65
2018-04-08T03:18:29.531Z,22.50
2018-04-08T03:20:57.894Z,24.63
2018-04-08T03:23:26.233Z,20.75
2018-04-08T03:25:54.586Z,24.42
2018-04-08T03:28:22.930Z,27.98
2018-04-08T03:30:51.295Z,18.75
2018-04-08T03:33:19.634Z,21.60
2018-04-08T03:35:47.996Z,21.73
2018-04-08T03:38:16.326Z,21.25
2018-04-08T03:40:44.689Z,23.40
2018-04-08T03:43:13.032Z,21.90
2018-04-08T03:45:41.386Z,20.62
2018-04-08T03:48:09.725Z,18.20
2018-04-08T03:50:38.081Z,24.55
2018-04-08T03:53:06.414Z,20.52
2018-04-08T03:55:34.779Z,25.67
2018-04-08T03:58:03.118Z,18.27
2018-04-08T04:00:31.470Z,17.67
2018-04-08T04:02:59.814Z,17.60
2018-04-08T04:05:28.173Z,20.48
2018-04-08T04:07:56.509Z,25.45
2018-04-08T04:10:24.866Z,21.42
2018-04-08T04:12:53.207Z,18.30
2018-04-08T04:15:21.560Z,15.55
2018-04-08T04:17:49.893Z,15.95
2018-04-08T04:20:30.141Z,16.00
2018-04-08T04:23:10.362Z,19.02
2018-04-08T04:25:47.333Z,14.90
2018-04-08T04:28:15.662Z,18.52
2018-04-08T04:30:44.022Z,21.10
2018-04-08T04:33:12.354Z,16.92
2018-04-08T04:35:40.717Z,19.15
2018-04-08T04:38:09.053Z,20.50
2018-04-08T04:40:37.409Z,17.20
2018-04-08T04:43:05.741Z,13.65
2018-04-08T04:45:34.135Z,19.45
2018-04-08T04:48:02.430Z,21.40
2018-04-08T04:50:30.785Z,23.77
2018-04-08T04:52:59.127Z,17.92
2018-04-08T04:55:27.482Z,20.30
2018-04-08T04:57:55.825Z,18.37
2018-04-08T05:00:24.184Z,18.02
2018-04-08T05:02:52.523Z,20.55
2018-04-08T05:05:20.880Z,13.27
2018-04-08T05:07:49.210Z,15.20
2018-04-08T05:10:17.562Z,13.15
2018-04-08T05:12:45.897Z,17.95
2018-04-08T05:15:14.258Z,17.55
2018-04-08T05:17:42.591Z,21.02
2018-04-08T05:20:10.948Z,21.23
2018-04-08T05:22:39.286Z,20.27
2018-04-08T05:25:07.646Z,18.45
2018-04-08T05:27:35.986Z,14.95
2018-04-08T05:30:04.350Z,21.70
2018-04-08T05:32:32.686Z,17.42
2018-04-08T05:35:01.059Z,15.27
2018-04-08T05:37:29.382Z,20.15
2018-04-08T05:39:57.751Z,15.77
2018-04-08T05:42:26.094Z,20.62
2018-04-08T05:44:54.438Z,18.30
2018-04-08T05:47:22.806Z,20.70
2018-04-08T05:49:51.138Z,15.82
2018-04-08T05:52:19.492Z,18.60
2018-04-08T05:54:47.826Z,20.98
2018-04-08T05:57:16.187Z,11.82
2018-04-08T05:59:44.522Z,16.62
2018-04-08T06:02:12.878Z,14.43
2018-04-08T06:04:41.219Z,15.52
2018-04-08T06:07:09.573Z,16.63
2018-04-08T06:09:37.902Z,17.33
2018-04-08T06:12:06.246Z,17.77
2018-04-08T06:14:34.574Z,21.03
2018-04-08T06:17:02.929Z,20.60
2018-04-08T06:19:31.253Z,24.60
2018-04-08T06:21:59.606Z,15.33
2018-04-08T06:24:27.944Z,26.73
2018-04-08T06:26:56.290Z,17.90
2018-04-08T06:29:24.618Z,18.83
2018-04-08T06:31:52.965Z,19.50
2018-04-08T06:34:21.294Z,16.73
2018-04-08T06:36:49.642Z,14.70
2018-04-08T06:39:17.978Z,18.27
2018-04-08T06:41:46.325Z,16.93
2018-04-08T06:44:14.653Z,16.13
2018-04-08T06:46:43.003Z,19.60
2018-04-08T06:49:11.338Z,16.93
2018-04-08T06:51:39.689Z,19.57
2018-04-08T06:54:08.278Z,19.63
2018-04-08T06:56:36.626Z,19.17
2018-04-08T06:59:04.958Z,25.27
2018-04-08T07:01:33.311Z,21.00
2018-04-08T07:04:01.642Z,14.23
2018-04-08T07:06:29.988Z,18.17
2018-04-08T07:08:58.318Z,16.23
2018-04-08T07:11:26.665Z,21.07
2018-04-08T07:13:54.999Z,18.17
2018-04-08T07:16:23.350Z,20.67
2018-04-08T07:18:51.676Z,17.30
2018-04-08T07:21:20.026Z,18.63
2018-04-08T07:23:48.353Z,15.30
2018-04-08T07:26:16.827Z,23.47
2018-04-08T07:28:45.138Z,18.13
2018-04-08T07:31:13.483Z,17.20
2018-04-08T07:33:41.809Z,16.20
2018-04-08T07:36:10.167Z,20.57
2018-04-08T07:38:38.486Z,14.20
2018-04-08T07:41:06.835Z,19.57
2018-04-08T07:43:35.183Z,17.47
2018-04-08T07:46:03.510Z,14.90
2018-04-08T07:48:31.854Z,12.97
2018-04-08T07:51:00.177Z,15.53
2018-04-08T07:53:28.522Z,15.90
2018-04-08T07:55:56.846Z,16.40
2018-04-08T07:58:25.194Z,15.50
2018-04-08T08:00:53.521Z,16.50
2018-04-08T08:03:21.878Z,22.20
2018-04-08T08:05:50.214Z,15.60
2018-04-08T08:08:18.552Z,17.40
2018-04-08T08:10:46.883Z,14.30
2018-04-08T08:13:15.233Z,34.33
2018-04-08T08:15:43.561Z,16.93
2018-04-08T08:18:11.915Z,16.50
2018-04-08T08:20:40.231Z,16.40
2018-04-08T08:23:08.591Z,21.30
2018-04-08T08:25:36.919Z,20.67
2018-04-08T08:28:05.274Z,16.37
2018-04-08T08:30:33.602Z,16.17
2018-04-08T08:33:01.955Z,20.60
2018-04-08T08:35:30.287Z,15.60
2018-04-08T08:37:58.645Z,15.07
2018-04-08T08:40:26.970Z,19.07
2018-04-08T08:42:55.335Z,19.97
2018-04-08T08:45:23.712Z,19.07
2018-04-08T08:47:52.058Z,25.87
2018-04-08T08:50:20.394Z,19.77
2018-04-08T08:52:48.753Z,20.52
2018-04-08T08:55:17.502Z,21.90
2018-04-08T08:57:45.865Z,20.43
2018-04-08T09:00:14.203Z,20.73
2018-04-08T09:02:42.546Z,19.50
2018-04-08T09:05:10.882Z,19.60
2018-04-08T09:07:39.230Z,18.58
2018-04-08T09:10:07.568Z,17.67
2018-04-08T09:12:35.930Z,25.53
2018-04-08T09:15:04.274Z,25.70
2018-04-08T09:17:32.672Z,20.17
2018-04-08T09:20:21.811Z,17.70
2018-04-08T09:26:07.708Z,20.73
2018-04-08T09:28:36.067Z,23.50
2018-04-08T09:31:04.398Z,26.10
2018-04-08T09:33:32.754Z,20.03
2018-04-08T09:36:01.090Z,22.15
2018-04-08T09:38:29.446Z,18.08
2018-04-08T09:40:58.130Z,25.98
2018-04-08T09:43:26.490Z,18.90
2018-04-08T09:45:54.827Z,23.27
2018-04-08T09:48:23.194Z,22.35
2018-04-08T09:50:51.533Z,30.40
2018-04-08T09:53:19.898Z,20.65
2018-04-08T09:55:48.231Z,22.93
2018-04-08T09:58:16.585Z,24.40
2018-04-08T10:03:52.205Z,20.60
2018-04-08T10:06:21.454Z,24.70
2018-04-08T10:08:49.811Z,22.30
2018-04-08T10:11:18.146Z,18.27
2018-04-08T10:13:46.505Z,17.00
2018-04-08T10:16:14.833Z,19.87
2018-04-08T10:18:43.189Z,18.58
2018-04-08T10:21:11.530Z,21.23
2018-04-08T10:23:39.895Z,23.33
2018-04-08T10:26:08.234Z,25.50
2018-04-08T10:28:36.582Z,22.30
2018-04-08T10:31:04.923Z,24.17
2018-04-08T10:33:33.292Z,21.10
2018-04-08T10:36:01.626Z,22.83
2018-04-08T10:38:29.985Z,21.93
2018-04-08T10:40:58.324Z,28.20
2018-04-08T10:43:26.674Z,27.47
2018-04-08T10:45:55.574Z,26.37
2018-04-08T10:48:23.941Z,22.93
2018-04-08T10:50:52.280Z,25.93
2018-04-08T10:53:20.627Z,28.93
2018-04-08T10:55:48.958Z,22.13
2018-04-08T10:58:17.321Z,22.13
2018-04-08T11:00:45.657Z,23.20
2018-04-08T11:03:14.014Z,22.47
2018-04-08T11:05:42.781Z,24.60
2018-04-08T11:08:11.138Z,30.30
2018-04-08T11:10:39.473Z,30.30
2018-04-08T11:13:07.838Z,21.50
2018-04-08T11:15:36.188Z,26.62
2018-04-08T11:18:04.518Z,28.37
2018-04-08T11:20:32.878Z,25.00
2018-04-08T11:23:01.218Z,31.63
2018-04-08T11:25:30.339Z,25.43
2018-04-08T11:27:58.678Z,33.90
2018-04-08T11:30:27.094Z,22.80
2018-04-08T11:32:55.456Z,26.27
2018-04-08T11:35:23.794Z,23.60
2018-04-08T11:37:52.132Z,23.15
2018-04-08T11:40:20.494Z,24.63
2018-04-08T11:42:48.831Z,23.37
2018-04-08T11:45:17.182Z,21.77
2018-04-08T11:47:45.514Z,24.83
2018-04-08T11:50:13.877Z,23.10
2018-04-08T11:52:42.210Z,20.92
2018-04-08T11:55:10.563Z,22.27
2018-04-08T11:57:38.906Z,25.63
2018-04-08T12:00:07.262Z,21.07
2018-04-08T12:02:35.599Z,27.77
2018-04-08T12:05:04.783Z,28.57
2018-04-08T12:07:33.121Z,24.77
2018-04-08T12:10:01.482Z,30.03
2018-04-08T12:12:29.818Z,26.00
2018-04-08T12:14:58.188Z,25.80
2018-04-08T12:17:26.522Z,24.08
2018-04-08T12:19:54.873Z,27.23
2018-04-08T12:22:23.210Z,25.30
2018-04-08T12:24:52.314Z,25.90
2018-04-08T12:27:21.614Z,34.03
2018-04-08T12:29:49.978Z,33.80
2018-04-08T12:32:18.309Z,28.00
2018-04-08T12:34:46.662Z,28.80
2018-04-08T12:37:15.005Z,30.60
2018-04-08T12:39:43.359Z,26.65
2018-04-08T12:42:11.698Z,27.50
2018-04-08T12:44:40.070Z,36.57
2018-04-08T12:47:08.412Z,27.57
2018-04-08T12:49:36.769Z,33.20
2018-04-08T12:52:05.134Z,37.70
2018-04-08T12:54:33.473Z,30.10
2018-04-08T12:57:01.813Z,31.60
2018-04-08T12:59:30.169Z,32.65
2018-04-08T13:01:58.510Z,35.23
2018-04-08T13:04:26.873Z,31.97
2018-04-08T13:06:56.159Z,37.13
2018-04-08T13:09:24.510Z,27.60
2018-04-08T13:11:52.851Z,40.80
2018-04-08T13:14:21.210Z,28.70
2018-04-08T13:16:49.545Z,34.50
2018-04-08T13:19:17.923Z,40.83
2018-04-08T13:21:46.278Z,32.50
2018-04-08T13:24:15.281Z,34.50
2018-04-08T13:26:43.640Z,35.37
2018-04-08T13:29:11.991Z,32.60
2018-04-08T13:31:40.354Z,26.80
2018-04-08T13:34:08.677Z,37.13
2018-04-08T13:36:37.030Z,29.75
2018-04-08T13:39:06.318Z,37.20
2018-04-08T13:41:34.678Z,40.05
2018-04-08T13:44:03.006Z,30.47
2018-04-08T13:46:31.370Z,34.63
2018-04-08T13:48:59.706Z,30.57
2018-04-08T13:51:28.063Z,35.33
2018-04-08T13:53:56.404Z,30.58
2018-04-08T13:56:24.752Z,32.63
2018-04-08T13:58:53.095Z,30.40
2018-04-08T14:01:21.461Z,37.73
2018-04-08T14:03:49.786Z,29.77
2018-04-08T14:06:18.150Z,35.97
2018-04-08T14:08:46.474Z,41.60
2018-04-08T14:11:14.839Z,35.63
2018-04-08T14:13:43.174Z,36.73
2018-04-08T14:16:11.530Z,31.52
2018-04-08T14:18:39.866Z,39.03
2018-04-08T14:21:08.235Z,43.30
2018-04-08T14:23:36.582Z,40.93
2018-04-08T14:26:04.938Z,33.20
2018-04-08T14:28:33.274Z,34.80
2018-04-08T14:31:01.627Z,26.60
2018-04-08T14:33:29.974Z,33.15
2018-04-08T14:35:58.317Z,35.50
2018-04-08T14:38:26.709Z,36.50
2018-04-08T14:40:55.103Z,33.73
2018-04-08T14:43:24.289Z,35.40
2018-04-08T14:45:52.646Z,38.33
2018-04-08T14:48:20.981Z,45.57
2018-04-08T14:50:49.334Z,42.75
2018-04-08T14:53:17.675Z,37.17
2018-04-08T14:55:46.033Z,32.60
2018-04-08T14:58:14.357Z,28.07
2018-04-08T15:00:42.717Z,34.20
2018-04-08T15:03:11.046Z,29.77
2018-04-08T15:05:39.406Z,33.67
2018-04-08T15:08:07.737Z,33.93
2018-04-08T15:10:36.127Z,32.23
2018-04-08T15:13:04.414Z,29.92
2018-04-08T15:15:32.761Z,30.73
2018-04-08T15:18:01.094Z,31.03
2018-04-08T15:20:29.443Z,31.43
2018-04-08T15:22:57.786Z,30.95
2018-04-08T15:25:26.120Z,33.30
2018-04-08T15:27:54.468Z,33.80
2018-04-08T15:30:22.817Z,34.05
2018-04-08T15:32:51.211Z,34.03
2018-04-08T15:35:19.526Z,35.70
2018-04-08T15:37:47.888Z,34.10
2018-04-08T15:40:16.946Z,33.87
2018-04-08T15:42:45.298Z,36.47
2018-04-08T15:45:13.631Z,32.53
2018-04-08T15:47:42.004Z,30.10
2018-04-08T15:50:10.330Z,35.23
2018-04-08T15:52:38.683Z,31.25
2018-04-08T15:55:07.015Z,34.43
2018-04-08T15:57:35.375Z,35.73
2018-04-08T16:00:04.690Z,36.78
2018-04-08T16:02:33.039Z,34.10
2018-04-08T16:05:01.374Z,40.07
2018-04-08T16:07:29.738Z,46.30
2018-04-08T16:09:58.074Z,57.53
2018-04-08T16:12:26.425Z,48.63
2018-04-08T16:14:54.773Z,37.53
2018-04-08T16:17:23.106Z,34.73
2018-04-08T16:19:52.409Z,40.72
2018-04-08T16:22:20.758Z,38.00
2018-04-08T16:24:49.089Z,37.43
2018-04-08T16:27:17.434Z,35.10
2018-04-08T16:29:45.767Z,33.20
2018-04-08T16:32:14.114Z,35.40
2018-04-08T16:34:42.441Z,39.42
2018-04-08T16:37:10.794Z,37.97
2018-04-08T16:39:39.229Z,42.10
2018-04-08T16:42:07.574Z,35.50
2018-04-08T16:44:35.911Z,35.80
2018-04-08T16:47:04.266Z,42.90
2018-04-08T16:49:32.589Z,41.28
2018-04-08T16:52:00.946Z,41.17
2018-04-08T16:54:29.270Z,38.88
2018-04-08T16:56:57.635Z,48.53
2018-04-08T16:59:26.854Z,38.85
2018-04-08T17:01:55.209Z,36.03
2018-04-08T17:04:23.548Z,42.20
2018-04-08T17:06:51.881Z,45.70
2018-04-08T17:09:20.225Z,39.20
2018-04-08T17:11:48.567Z,51.78
2018-04-08T17:14:16.890Z,44.87
2018-04-08T17:16:45.250Z,44.13
2018-04-08T17:19:13.574Z,47.67
2018-04-08T17:21:41.943Z,55.60
2018-04-08T17:24:10.269Z,44.50
2018-04-08T17:26:38.607Z,49.75
2018-04-08T17:29:06.958Z,43.10
2018-04-08T17:31:35.293Z,48.57
2018-04-08T17:34:03.647Z,46.60
2018-04-08T17:36:31.986Z,57.30
2018-04-08T17:39:00.338Z,43.77
2018-04-08T17:41:28.670Z,45.90
2018-04-08T17:43:57.013Z,43.90
2018-04-08T17:46:26.250Z,43.92
2018-04-08T17:48:54.602Z,64.57
2018-04-08T17:51:22.930Z,50.75
2018-04-08T17:53:51.292Z,47.63
2018-04-08T17:56:19.626Z,47.60
2018-04-08T17:58:47.985Z,49.17
2018-04-08T18:01:16.327Z,47.90
2018-04-08T18:03:44.685Z,46.60
2018-04-08T18:06:13.022Z,45.12
2018-04-08T18:08:41.377Z,46.70
2018-04-08T18:11:09.724Z,46.43
2018-04-08T18:13:38.081Z,44.05
2018-04-08T18:16:06.427Z,48.23
2018-04-08T18:18:34.782Z,58.90
2018-04-08T18:21:03.122Z,52.97
2018-04-08T18:23:31.479Z,47.33
2018-04-08T18:25:59.814Z,48.38
2018-04-08T18:28:28.170Z,48.20
2018-04-08T18:30:56.514Z,49.65
2018-04-08T18:33:24.874Z,53.57
2018-04-08T18:35:53.221Z,51.50
2018-04-08T18:38:21.578Z,50.93
2018-04-08T18:40:49.910Z,48.20
2018-04-08T18:43:18.265Z,55.07
2018-04-08T18:45:46.597Z,47.50
2018-04-08T18:48:14.967Z,58.55
2018-04-08T18:50:43.313Z,52.23
2018-04-08T18:53:11.662Z,49.15
2018-04-08T18:55:39.994Z,58.70
2018-04-08T18:58:08.360Z,57.47
2018-04-08T19:00:36.700Z,52.40
2018-04-08T19:03:05.066Z,48.53
2018-04-08T19:05:33.403Z,50.55
2018-04-08T19:08:01.764Z,42.97
2018-04-08T19:10:30.107Z,48.25
2018-04-08T19:12:58.479Z,54.47
2018-04-08T19:15:26.999Z,49.97
2018-04-08T19:18:00.994Z,48.43
2018-04-08T19:20:29.587Z,48.23
2018-04-08T19:22:58.074Z,45.57
2018-04-08T19:25:26.406Z,49.23
2018-04-08T19:27:56.366Z,51.15
2018-04-08T19:30:24.710Z,51.03
2018-04-08T19:32:53.046Z,45.10
2018-04-08T19:35:21.410Z,56.75
2018-04-08T19:37:49.749Z,50.80
2018-04-08T19:40:18.262Z,51.25
2018-04-08T19:42:46.606Z,52.00
2018-04-08T19:45:15.870Z,49.50
2018-04-08T19:47:44.220Z,42.77
2018-04-08T19:50:12.579Z,50.42
2018-04-08T19:52:40.987Z,45.93
2018-04-08T19:55:09.357Z,45.25
2018-04-08T19:57:37.686Z,47.80
2018-04-08T20:00:06.042Z,45.03
2018-04-08T20:02:34.387Z,48.67
2018-04-08T20:05:02.751Z,45.13
2018-04-08T20:07:31.091Z,45.27
2018-04-08T20:09:59.446Z,47.37
2018-04-08T20:12:27.792Z,45.65
2018-04-08T20:14:56.161Z,50.83
2018-04-08T20:17:24.497Z,47.33
2018-04-08T20:19:52.860Z,46.80
2018-04-08T20:22:21.208Z,44.47
2018-04-08T20:24:49.561Z,42.17
2018-04-08T20:27:17.890Z,59.77
2018-04-08T20:29:46.252Z,52.03
2018-04-08T20:32:14.602Z,51.13
2018-04-08T20:34:42.937Z,44.00
2018-04-08T20:37:11.283Z,47.47
2018-04-08T20:39:40.455Z,46.05
2018-04-08T20:42:08.795Z,51.77
2018-04-08T20:44:37.150Z,48.23
2018-04-08T20:47:05.490Z,45.97
2018-04-08T20:49:33.850Z,51.90
2018-04-08T20:52:02.191Z,55.25
2018-04-08T20:54:30.547Z,43.15
2018-04-08T20:56:58.882Z,49.97
2018-04-08T20:59:27.241Z,57.50
2018-04-08T21:01:55.582Z,48.17
2018-04-08T21:04:23.947Z,45.43
2018-04-08T21:06:52.282Z,49.20
2018-04-08T21:09:20.643Z,58.13
2018-04-08T21:11:48.974Z,49.97
2018-04-08T21:14:17.335Z,41.42
2018-04-08T21:16:45.670Z,53.00
2018-04-08T21:19:14.030Z,50.63
2018-04-08T21:21:42.361Z,48.13
2018-04-08T21:24:10.706Z,49.60
2018-04-08T21:26:39.042Z,50.33
2018-04-08T21:29:07.390Z,49.57
2018-04-08T21:31:35.724Z,57.33
2018-04-08T21:34:04.050Z,55.70
2018-04-08T21:36:32.409Z,53.47
2018-04-08T21:39:00.742Z,52.10
2018-04-08T21:41:29.095Z,57.57
2018-04-08T21:43:57.426Z,50.77
2018-04-08T21:46:25.774Z,55.50
2018-04-08T21:48:54.110Z,49.97
2018-04-08T21:51:22.457Z,58.67
2018-04-08T21:53:50.829Z,50.97
2018-04-08T21:56:19.142Z,53.37
2018-04-08T21:58:47.481Z,52.50
2018-04-08T22:01:15.830Z,52.27
2018-04-08T22:03:44.157Z,50.90
2018-04-08T22:06:12.517Z,50.97
2018-04-08T22:08:40.842Z,52.00
2018-04-08T22:11:09.195Z,53.23
2018-04-08T22:13:37.530Z,48.03
2018-04-08T22:16:05.878Z,47.57
2018-04-08T22:18:34.209Z,52.03
2018-04-08T22:21:02.570Z,48.40
2018-04-08T22:23:30.901Z,55.87
2018-04-08T22:25:59.253Z,51.17
2018-04-08T22:28:27.587Z,45.80
2018-04-08T22:30:55.938Z,51.17
2018-04-08T22:33:24.265Z,54.60
2018-04-08T22:35:52.617Z,49.37
2018-04-08T22:38:20.946Z,49.53
2018-04-08T22:40:49.338Z,51.20
2018-04-08T22:43:17.670Z,47.17
2018-04-08T22:45:46.018Z,53.07
2018-04-08T22:48:14.346Z,49.93
2018-04-08T22:50:42.700Z,52.17
2018-04-08T22:53:11.034Z,52.40
2018-04-08T22:55:39.386Z,49.37
2018-04-08T22:58:07.719Z,49.73
2018-04-08T23:00:36.070Z,50.43
2018-04-08T23:03:04.402Z,48.93
2018-04-08T23:05:32.758Z,55.53
2018-04-08T23:08:01.101Z,62.70
2018-04-08T23:10:29.450Z,51.93
2018-04-08T23:12:57.787Z,61.67
2018-04-08T23:15:26.138Z,53.83
2018-04-08T23:17:54.463Z,58.13
2018-04-08T23:20:22.814Z,49.40
2018-04-08T23:22:51.156Z,52.90
2018-04-08T23:25:19.507Z,49.70
2018-04-08T23:27:47.846Z,52.60
2018-04-08T23:30:16.195Z,53.30
2018-04-08T23:32:44.529Z,58.50
2018-04-08T23:35:12.862Z,58.07
2018-04-08T23:37:41.214Z,53.10
2018-04-08T23:40:09.546Z,57.03
2018-04-08T23:42:37.893Z,52.73
2018-04-08T23:45:06.244Z,48.60
2018-04-08T23:47:34.586Z,57.30
2018-04-08T23:50:02.918Z,48.90
2018-04-08T23:52:31.274Z,52.87
2018-04-08T23:54:59.602Z,50.23
2018-04-08T23:57:27.959Z,51.23
2018-04-08T23:59:56.285Z,48.30
